Time;durP1;ratioP1;P1;durP2;ratioP2;P2;SDS_P1;SDS_P2;PMS_P1;PMS_P2;Temp;Humidity;BMP_temperature;BMP_pressure;BME280_temperature;BME280_humidity;BME280_pressure;Samples;Min_cycle;Max_cycle;Signal;HPM_P1;HPM_P2
2022/04/01 00:01:52;;;;;;;22.63;15.13;;;;;;;;;;7346022;19;20014;-78
2022/04/01 00:04:17;;;;;;;23.80;14.98;;;;;;;;;;7365868;19;20363;-79
2022/04/01 00:06:42;;;;;;;23.27;14.93;;;;;;;;;;7380047;19;20043;-79
2022/04/01 00:09:07;;;;;;;23.70;15.03;;;;;;;;;;7377737;19;20473;-78
2022/04/01 00:11:32;;;;;;;22.50;14.75;;;;;;;;;;7361255;19;20728;-77
2022/04/01 00:13:58;;;;;;;22.43;14.77;;;;;;;;;;7383660;19;20033;-79
2022/04/01 00:16:23;;;;;;;25.43;16.70;;;;;;;;;;7292481;19;20268;-79
2022/04/01 00:18:48;;;;;;;22.60;14.77;;;;;;;;;;7375630;19;20587;-77
2022/04/01 00:21:13;;;;;;;26.05;15.63;;;;;;;;;;7379430;19;20006;-80
2022/04/01 00:23:38;;;;;;;25.23;15.93;;;;;;;;;;7372314;19;20403;-78
2022/04/01 00:26:04;;;;;;;26.13;16.92;;;;;;;;;;7343772;19;20010;-80
2022/04/01 00:28:29;;;;;;;24.15;16.00;;;;;;;;;;7376382;19;20364;-79
2022/04/01 00:30:54;;;;;;;25.60;16.42;;;;;;;;;;7335616;19;20014;-79
2022/04/01 00:33:20;;;;;;;27.50;16.55;;;;;;;;;;7374787;19;20147;-79
2022/04/01 00:35:45;;;;;;;27.00;17.17;;;;;;;;;;7369932;19;20037;-79
2022/04/01 00:38:10;;;;;;;26.98;15.80;;;;;;;;;;7362338;19;20646;-79
2022/04/01 00:40:36;;;;;;;23.25;15.20;;;;;;;;;;7349844;19;20022;-78
2022/04/01 00:43:02;;;;;;;27.85;17.52;;;;;;;;;;7383542;19;20002;-78
2022/04/01 00:45:27;;;;;;;24.63;16.23;;;;;;;;;;7367530;19;20006;-77
2022/04/01 00:47:54;;;;;;;25.13;16.27;;;;;;;;;;7354838;19;20352;-81
2022/04/01 00:50:19;;;;;;;27.92;17.38;;;;;;;;;;7379188;19;20014;-78
2022/04/01 00:52:44;;;;;;;28.00;17.98;;;;;;;;;;7370349;19;20013;-81
2022/04/01 00:55:10;;;;;;;30.33;19.13;;;;;;;;;;7382259;19;20370;-78
2022/04/01 00:57:36;;;;;;;28.55;18.35;;;;;;;;;;7356662;19;20035;-78
2022/04/01 01:00:02;;;;;;;31.75;19.63;;;;;;;;;;7347361;19;20692;-79
2022/04/01 01:02:28;;;;;;;30.35;18.98;;;;;;;;;;7372428;19;20492;-79
2022/04/01 01:04:53;;;;;;;29.88;18.35;;;;;;;;;;7373826;19;20010;-79
2022/04/01 01:07:18;;;;;;;29.95;18.70;;;;;;;;;;7359933;19;20078;-78
2022/04/01 01:09:43;;;;;;;30.98;19.08;;;;;;;;;;7332642;19;20472;-81
2022/04/01 01:12:10;;;;;;;32.03;20.30;;;;;;;;;;7380015;19;20011;-78
2022/04/01 01:14:36;;;;;;;31.13;19.73;;;;;;;;;;7362301;19;20763;-79
2022/04/01 01:17:03;;;;;;;32.83;20.05;;;;;;;;;;7353930;19;20344;-79
2022/04/01 01:19:30;;;;;;;34.60;20.65;;;;;;;;;;7359484;19;20007;-78
2022/04/01 01:21:56;;;;;;;31.40;19.10;;;;;;;;;;7376928;19;20633;-78
2022/04/01 01:24:41;;;;;;;33.97;20.48;;;;;;;;;;7380235;19;20010;-79
2022/04/01 01:27:07;;;;;;;32.55;20.48;;;;;;;;;;7368244;19;20026;-79
2022/04/01 01:29:33;;;;;;;34.17;20.90;;;;;;;;;;7356912;19;20789;-78
2022/04/01 01:31:59;;;;;;;35.63;21.75;;;;;;;;;;7357108;19;20014;-79
2022/04/01 01:34:28;;;;;;;35.75;21.75;;;;;;;;;;7377148;19;20008;-79
2022/04/01 01:36:53;;;;;;;35.92;20.02;;;;;;;;;;7375798;19;20031;-79
2022/04/01 01:39:20;;;;;;;34.28;21.45;;;;;;;;;;7367914;19;20018;-81
2022/04/01 01:41:46;;;;;;;36.40;21.67;;;;;;;;;;7374985;19;20046;-79
2022/04/01 01:44:11;;;;;;;34.60;22.60;;;;;;;;;;7368542;19;20014;-79
2022/04/01 01:46:37;;;;;;;32.97;21.27;;;;;;;;;;7354123;19;20021;-79
2022/04/01 01:49:02;;;;;;;35.05;22.10;;;;;;;;;;7380008;19;20013;-79
2022/04/01 01:56:55;;;;;;;34.38;21.35;;;;;;;;;;7382411;19;20503;-79
2022/04/01 01:59:21;;;;;;;42.72;23.60;;;;;;;;;;7371916;19;20046;-81
2022/04/01 02:01:46;;;;;;;36.60;22.55;;;;;;;;;;7340149;19;20394;-79
2022/04/01 02:04:12;;;;;;;37.72;22.95;;;;;;;;;;7380461;19;20006;-79
2022/04/01 02:06:38;;;;;;;37.67;24.08;;;;;;;;;;7365709;19;20443;-79
2022/04/01 02:09:03;;;;;;;33.83;21.88;;;;;;;;;;7379684;19;20351;-78
2022/04/01 02:11:28;;;;;;;38.17;23.38;;;;;;;;;;7377050;19;20013;-79
2022/04/01 02:13:54;;;;;;;40.05;24.10;;;;;;;;;;7362585;19;21883;-78
2022/04/01 02:16:21;;;;;;;37.72;22.88;;;;;;;;;;7347568;19;19999;-79
2022/04/01 02:18:47;;;;;;;37.10;22.60;;;;;;;;;;7377826;19;20023;-78
2022/04/01 02:21:15;;;;;;;36.78;22.55;;;;;;;;;;7375192;19;20007;-80
2022/04/01 02:23:41;;;;;;;35.72;21.85;;;;;;;;;;7378354;19;20007;-78
2022/04/01 02:26:09;;;;;;;39.13;24.67;;;;;;;;;;7367469;19;20011;-79
2022/04/01 02:28:35;;;;;;;36.50;22.90;;;;;;;;;;7376279;19;20484;-79
2022/04/01 02:31:00;;;;;;;35.42;22.83;;;;;;;;;;7345351;19;20010;-79
2022/04/01 02:33:27;;;;;;;34.00;21.70;;;;;;;;;;7380265;19;20082;-79
2022/04/01 02:35:53;;;;;;;33.83;22.45;;;;;;;;;;7374143;19;20496;-78
2022/04/01 02:38:18;;;;;;;34.13;22.00;;;;;;;;;;7365668;19;20550;-79
2022/04/01 02:40:43;;;;;;;36.75;22.67;;;;;;;;;;7373924;19;20458;-78
2022/04/01 02:43:08;;;;;;;35.63;22.77;;;;;;;;;;7380179;19;20026;-78
2022/04/01 02:45:33;;;;;;;33.55;21.65;;;;;;;;;;7352733;19;20338;-79
2022/04/01 02:47:58;;;;;;;34.25;22.67;;;;;;;;;;7376983;19;20019;-78
2022/04/01 02:50:25;;;;;;;33.92;22.27;;;;;;;;;;7357331;19;20023;-78
2022/04/01 02:52:50;;;;;;;32.35;21.98;;;;;;;;;;7380365;19;20003;-79
2022/04/01 02:55:15;;;;;;;34.33;22.88;;;;;;;;;;7374256;19;20110;-80
2022/04/01 02:57:40;;;;;;;34.55;22.70;;;;;;;;;;7351493;19;20031;-80
2022/04/01 03:00:09;;;;;;;33.50;21.77;;;;;;;;;;7365422;19;20003;-78
2022/04/01 03:02:40;;;;;;;34.42;22.35;;;;;;;;;;7339057;19;20289;-79
2022/04/01 03:05:05;;;;;;;31.85;21.25;;;;;;;;;;7386760;19;20011;-78
2022/04/01 03:07:30;;;;;;;33.55;21.85;;;;;;;;;;7376342;19;20083;-79
2022/04/01 03:09:56;;;;;;;36.35;22.75;;;;;;;;;;7386585;19;20013;-78
2022/04/01 03:12:21;;;;;;;33.20;22.30;;;;;;;;;;7366188;19;20475;-78
2022/04/01 03:14:46;;;;;;;34.03;23.05;;;;;;;;;;7374804;19;20575;-77
2022/04/01 03:17:11;;;;;;;35.72;22.95;;;;;;;;;;7367136;19;20021;-78
2022/04/01 03:19:39;;;;;;;36.25;22.27;;;;;;;;;;7385313;19;20002;-78
2022/04/01 03:22:04;;;;;;;35.42;22.05;;;;;;;;;;7380532;19;20353;-80
2022/04/01 03:24:30;;;;;;;33.53;21.50;;;;;;;;;;7384102;19;20015;-78
2022/04/01 03:26:55;;;;;;;35.80;22.98;;;;;;;;;;7364488;19;20011;-79
2022/04/01 03:29:20;;;;;;;35.45;22.58;;;;;;;;;;7385279;19;20029;-81
2022/04/01 03:31:47;;;;;;;33.90;22.40;;;;;;;;;;7354010;19;20027;-78
2022/04/01 03:34:13;;;;;;;37.42;23.77;;;;;;;;;;7382723;19;20014;-79
2022/04/01 03:36:39;;;;;;;34.55;23.17;;;;;;;;;;7379040;19;20030;-81
2022/04/01 03:39:04;;;;;;;35.28;22.50;;;;;;;;;;7384083;19;20034;-79
2022/04/01 03:41:30;;;;;;;36.08;24.42;;;;;;;;;;7372648;19;20022;-78
2022/04/01 03:43:55;;;;;;;33.55;21.88;;;;;;;;;;7385747;19;20006;-78
2022/04/01 03:46:22;;;;;;;34.92;22.70;;;;;;;;;;7359320;19;20002;-79
2022/04/01 03:49:04;;;;;;;32.35;21.15;;;;;;;;;;7381304;19;20002;-78
2022/04/01 03:51:29;;;;;;;35.50;23.25;;;;;;;;;;7381619;19;20592;-78
2022/04/01 03:53:57;;;;;;;32.90;22.00;;;;;;;;;;7368388;19;20014;-78
2022/04/01 03:56:27;;;;;;;33.72;22.17;;;;;;;;;;7376331;19;20038;-78
2022/04/01 03:58:53;;;;;;;32.00;21.75;;;;;;;;;;7366589;19;20572;-79
2022/04/01 04:01:19;;;;;;;33.80;22.52;;;;;;;;;;7369616;19;20078;-78
2022/04/01 04:03:44;;;;;;;31.10;20.45;;;;;;;;;;7384623;19;20014;-78
2022/04/01 04:06:10;;;;;;;34.53;22.83;;;;;;;;;;7378185;19;20002;-79
2022/04/01 04:08:36;;;;;;;32.38;21.13;;;;;;;;;;7360491;19;20015;-79
2022/04/01 04:11:02;;;;;;;33.25;21.38;;;;;;;;;;7382640;19;20011;-78
2022/04/01 04:13:27;;;;;;;34.50;22.73;;;;;;;;;;7375836;19;20066;-79
2022/04/01 04:16:12;;;;;;;34.80;22.77;;;;;;;;;;7343767;19;20007;-79
2022/04/01 04:18:43;;;;;;;33.17;22.10;;;;;;;;;;7378723;19;20362;-79
2022/04/01 04:21:15;;;;;;;33.45;21.33;;;;;;;;;;7376688;19;20330;-79
2022/04/01 04:23:45;;;;;;;32.40;20.77;;;;;;;;;;7371105;19;20612;-81
2022/04/01 04:26:13;;;;;;;32.90;20.80;;;;;;;;;;7367896;19;20324;-81
2022/04/01 04:28:40;;;;;;;30.70;20.15;;;;;;;;;;7362051;19;20362;-76
2022/04/01 04:31:07;;;;;;;32.90;20.30;;;;;;;;;;7345605;19;20548;-76
2022/04/01 04:33:33;;;;;;;32.08;20.80;;;;;;;;;;7376052;19;20054;-76
2022/04/01 04:36:05;;;;;;;32.15;20.98;;;;;;;;;;7369613;19;20010;-76
2022/04/01 04:38:37;;;;;;;30.67;20.38;;;;;;;;;;7366252;19;20028;-76
2022/04/01 04:41:08;;;;;;;29.65;19.83;;;;;;;;;;7381600;19;20011;-76
2022/04/01 04:43:34;;;;;;;32.92;20.52;;;;;;;;;;7377095;19;20026;-76
2022/04/01 04:46:00;;;;;;;34.90;20.88;;;;;;;;;;7362364;19;20006;-76
2022/04/01 04:48:27;;;;;;;32.42;20.65;;;;;;;;;;7367100;19;20043;-76
2022/04/01 04:50:53;;;;;;;29.00;18.95;;;;;;;;;;7378320;19;20021;-76
2022/04/01 04:53:19;;;;;;;30.52;19.30;;;;;;;;;;7365130;19;20006;-76
2022/04/01 04:55:46;;;;;;;30.35;19.02;;;;;;;;;;7367181;19;20010;-76
2022/04/01 04:58:12;;;;;;;30.52;19.90;;;;;;;;;;7380981;19;20010;-76
2022/04/01 05:00:39;;;;;;;31.25;19.70;;;;;;;;;;7359693;19;20011;-76
2022/04/01 05:03:10;;;;;;;32.35;20.92;;;;;;;;;;7377035;19;20356;-76
2022/04/01 05:05:56;;;;;;;31.63;19.83;;;;;;;;;;7371449;19;20021;-76
2022/04/01 05:08:21;;;;;;;29.50;19.70;;;;;;;;;;7367692;19;20457;-76
2022/04/01 05:10:53;;;;;;;29.52;19.23;;;;;;;;;;7347639;19;20010;-76
2022/04/01 05:13:22;;;;;;;28.02;19.08;;;;;;;;;;7365024;19;20305;-77
2022/04/01 05:15:53;;;;;;;31.05;18.60;;;;;;;;;;7351495;19;20499;-76
2022/04/01 05:18:29;;;;;;;26.83;18.27;;;;;;;;;;7374109;19;20021;-76
2022/04/01 05:20:55;;;;;;;30.52;19.58;;;;;;;;;;7369621;19;20010;-76
2022/04/01 05:23:39;;;;;;;30.05;19.17;;;;;;;;;;7367795;19;20014;-76
2022/04/01 05:26:10;;;;;;;29.70;17.70;;;;;;;;;;7347960;19;20703;-76
2022/04/01 05:28:40;;;;;;;25.60;16.00;;;;;;;;;;7370188;19;21104;-76
2022/04/01 05:31:08;;;;;;;26.98;16.88;;;;;;;;;;7354071;19;20950;-76
2022/04/01 05:33:41;;;;;;;27.90;16.58;;;;;;;;;;7374003;19;20010;-76
2022/04/01 05:36:07;;;;;;;28.40;17.52;;;;;;;;;;7369278;19;20042;-76
2022/04/01 05:38:34;;;;;;;24.52;14.93;;;;;;;;;;7345564;19;20010;-75
2022/04/01 05:40:59;;;;;;;23.77;15.07;;;;;;;;;;7370491;19;20476;-77
2022/04/01 05:43:26;;;;;;;25.65;15.43;;;;;;;;;;7363724;19;20011;-78
2022/04/01 05:45:53;;;;;;;25.70;14.55;;;;;;;;;;7357215;19;20193;-79
2022/04/01 05:48:19;;;;;;;24.08;15.10;;;;;;;;;;7380116;19;20018;-78
2022/04/01 05:50:45;;;;;;;21.92;13.98;;;;;;;;;;7360182;19;20007;-78
2022/04/01 05:53:11;;;;;;;29.00;16.65;;;;;;;;;;7384347;19;20010;-77
2022/04/01 05:55:37;;;;;;;25.38;15.48;;;;;;;;;;7377536;19;20018;-78
2022/04/01 05:58:03;;;;;;;29.67;18.17;;;;;;;;;;7369569;19;20035;-77
2022/04/01 06:00:30;;;;;;;29.45;17.95;;;;;;;;;;7359447;19;20030;-77
2022/04/01 06:03:08;;;;;;;29.98;17.73;;;;;;;;;;7375937;19;20010;-77
2022/04/01 06:05:42;;;;;;;32.80;19.20;;;;;;;;;;7375697;19;20093;-78
2022/04/01 06:08:27;;;;;;;39.22;20.38;;;;;;;;;;7374534;19;20470;-76
2022/04/01 06:10:59;;;;;;;34.88;21.00;;;;;;;;;;7354089;19;20014;-78
2022/04/01 06:13:40;;;;;;;35.25;21.33;;;;;;;;;;7374894;19;20009;-77
2022/04/01 06:16:20;;;;;;;37.75;21.75;;;;;;;;;;7348874;19;20041;-79
2022/04/01 06:19:04;;;;;;;39.83;22.05;;;;;;;;;;7365843;19;20463;-78
2022/04/01 06:21:36;;;;;;;39.25;23.58;;;;;;;;;;7380640;19;20335;-78
2022/04/01 06:24:01;;;;;;;40.15;22.55;;;;;;;;;;7365302;19;20018;-78
2022/04/01 06:26:28;;;;;;;43.30;23.77;;;;;;;;;;7371917;19;20003;-77
2022/04/01 06:29:09;;;;;;;44.83;24.27;;;;;;;;;;7374459;19;20018;-77
2022/04/01 06:31:35;;;;;;;38.65;22.15;;;;;;;;;;7367067;19;20021;-78
2022/04/01 06:34:09;;;;;;;43.30;23.63;;;;;;;;;;7375772;19;20010;-77
2022/04/01 06:36:38;;;;;;;46.03;26.38;;;;;;;;;;7357837;19;20020;-77
2022/04/01 06:39:03;;;;;;;43.35;25.17;;;;;;;;;;7371922;19;20015;-78
2022/04/01 06:41:29;;;;;;;44.60;24.88;;;;;;;;;;7377371;19;20081;-77
2022/04/01 06:43:54;;;;;;;40.40;23.52;;;;;;;;;;7378111;19;20017;-77
2022/04/01 06:46:19;;;;;;;40.90;23.08;;;;;;;;;;7353086;19;20014;-75
2022/04/01 06:48:45;;;;;;;37.33;21.63;;;;;;;;;;7382994;19;20034;-82
2022/04/01 06:51:11;;;;;;;38.67;22.08;;;;;;;;;;7384289;19;20745;-83
2022/04/01 06:53:36;;;;;;;38.30;23.00;;;;;;;;;;7370286;19;20020;-81
2022/04/01 06:56:03;;;;;;;37.65;23.55;;;;;;;;;;7382898;19;20007;-83
2022/04/01 06:58:30;;;;;;;38.88;24.38;;;;;;;;;;7381274;19;20034;-84
2022/04/01 07:00:55;;;;;;;37.85;23.77;;;;;;;;;;7361859;19;20010;-81
2022/04/01 07:03:21;;;;;;;38.40;23.48;;;;;;;;;;7383570;19;20010;-81
2022/04/01 07:05:47;;;;;;;38.67;23.88;;;;;;;;;;7381667;19;20025;-82
2022/04/01 07:08:12;;;;;;;36.88;24.45;;;;;;;;;;7383291;19;20011;-81
2022/04/01 07:10:39;;;;;;;39.70;24.38;;;;;;;;;;7365606;19;20014;-81
2022/04/01 07:13:04;;;;;;;38.90;24.45;;;;;;;;;;7376733;19;20021;-81
2022/04/01 07:15:29;;;;;;;40.55;25.65;;;;;;;;;;7377651;19;20089;-81
2022/04/01 07:17:55;;;;;;;38.75;25.40;;;;;;;;;;7370877;19;20003;-83
2022/04/01 07:20:20;;;;;;;39.10;25.35;;;;;;;;;;7385887;19;20018;-80
2022/04/01 07:22:45;;;;;;;36.13;23.52;;;;;;;;;;7382602;19;20582;-81
2022/04/01 07:25:11;;;;;;;35.33;23.80;;;;;;;;;;7365595;19;20102;-81
2022/04/01 07:27:36;;;;;;;36.78;23.90;;;;;;;;;;7383879;19;20010;-81
2022/04/01 07:30:02;;;;;;;35.67;23.50;;;;;;;;;;7374372;19;20010;-83
2022/04/01 07:32:30;;;;;;;37.13;22.90;;;;;;;;;;7380322;19;20018;-81
2022/04/01 07:34:55;;;;;;;35.17;22.75;;;;;;;;;;7377054;19;20013;-84
2022/04/01 07:37:23;;;;;;;33.15;22.20;;;;;;;;;;7386419;19;20053;-79
2022/04/01 07:39:49;;;;;;;33.00;21.15;;;;;;;;;;7367401;19;20015;-83
2022/04/01 07:42:14;;;;;;;35.13;22.35;;;;;;;;;;7386080;19;20500;-81
2022/04/01 07:44:39;;;;;;;33.97;22.30;;;;;;;;;;7373623;19;20003;-82
2022/04/01 07:47:09;;;;;;;37.10;22.77;;;;;;;;;;7382139;19;20006;-85
2022/04/01 07:49:34;;;;;;;33.38;21.60;;;;;;;;;;7377820;19;20010;-82
2022/04/01 07:51:59;;;;;;;34.63;21.05;;;;;;;;;;7381898;19;20013;-82
2022/04/01 07:54:24;;;;;;;35.13;22.65;;;;;;;;;;7374193;19;20030;-82
2022/04/01 07:56:50;;;;;;;32.67;21.48;;;;;;;;;;7374201;19;20006;-82
2022/04/01 07:59:15;;;;;;;33.45;22.15;;;;;;;;;;7382921;19;20287;-81
2022/04/01 08:01:40;;;;;;;30.25;20.60;;;;;;;;;;7362363;19;20007;-84
2022/04/01 08:04:06;;;;;;;34.20;21.73;;;;;;;;;;7382327;19;20015;-81
2022/04/01 08:06:31;;;;;;;29.98;20.25;;;;;;;;;;7385303;19;20007;-85
2022/04/01 08:08:58;;;;;;;32.15;20.77;;;;;;;;;;7385961;19;20019;-85
2022/04/01 08:11:24;;;;;;;30.00;20.30;;;;;;;;;;7391472;19;20007;-85
2022/04/01 08:13:49;;;;;;;32.92;20.25;;;;;;;;;;7385406;19;20017;-81
2022/04/01 08:16:14;;;;;;;35.72;20.48;;;;;;;;;;7362591;19;20039;-84
2022/04/01 08:18:40;;;;;;;33.28;19.73;;;;;;;;;;7380356;19;20014;-81
2022/04/01 08:21:05;;;;;;;32.03;20.80;;;;;;;;;;7379395;19;20855;-83
2022/04/01 08:23:34;;;;;;;29.25;19.63;;;;;;;;;;7373969;19;20073;-81
2022/04/01 08:25:59;;;;;;;29.85;18.70;;;;;;;;;;7383672;19;21552;-81
2022/04/01 08:28:24;;;;;;;32.78;20.27;;;;;;;;;;7380486;19;20011;-82
2022/04/01 08:30:50;;;;;;;28.83;19.27;;;;;;;;;;7375682;19;20241;-83
2022/04/01 08:33:17;;;;;;;30.50;18.65;;;;;;;;;;7381873;19;20022;-82
2022/04/01 08:35:42;;;;;;;29.40;19.15;;;;;;;;;;7382879;19;20034;-81
2022/04/01 08:38:09;;;;;;;33.10;19.92;;;;;;;;;;7384327;19;21008;-82
2022/04/01 08:40:34;;;;;;;30.02;19.38;;;;;;;;;;7369579;19;20267;-82
2022/04/01 08:42:59;;;;;;;32.95;20.55;;;;;;;;;;7382806;19;20010;-81
2022/04/01 08:45:25;;;;;;;31.05;20.17;;;;;;;;;;7373043;19;20313;-82
2022/04/01 08:47:50;;;;;;;38.30;21.50;;;;;;;;;;7380057;19;20014;-83
2022/04/01 08:50:15;;;;;;;31.23;21.70;;;;;;;;;;7377227;19;20415;-82
2022/04/01 08:52:41;;;;;;;33.47;22.02;;;;;;;;;;7360539;19;20028;-82
2022/04/01 08:55:07;;;;;;;35.60;22.60;;;;;;;;;;7384879;19;20041;-80
2022/04/01 08:57:40;;;;;;;32.47;21.80;;;;;;;;;;7379399;19;20033;-82
2022/04/01 09:00:11;;;;;;;32.05;20.83;;;;;;;;;;7365780;19;20011;-82
2022/04/01 09:02:36;;;;;;;32.47;21.70;;;;;;;;;;7380303;19;20442;-82
2022/04/01 09:05:06;;;;;;;32.13;20.73;;;;;;;;;;7376207;19;20002;-81
2022/04/01 09:07:31;;;;;;;32.08;20.10;;;;;;;;;;7382073;19;20033;-83
2022/04/01 09:10:00;;;;;;;29.50;19.42;;;;;;;;;;7369786;19;20014;-82
2022/04/01 09:12:25;;;;;;;25.42;16.73;;;;;;;;;;7384639;19;20012;-84
2022/04/01 09:14:52;;;;;;;25.38;17.30;;;;;;;;;;7367675;19;20517;-83
2022/04/01 09:17:17;;;;;;;28.65;17.58;;;;;;;;;;7362609;19;20021;-83
2022/04/01 09:19:43;;;;;;;24.67;16.15;;;;;;;;;;7364055;19;22099;-84
2022/04/01 09:22:24;;;;;;;32.50;19.42;;;;;;;;;;7363970;19;20095;-82
2022/04/01 09:24:52;;;;;;;30.83;19.27;;;;;;;;;;7377692;19;20089;-83
2022/04/01 09:27:18;;;;;;;28.13;18.77;;;;;;;;;;7377526;19;20014;-82
2022/04/01 09:29:43;;;;;;;29.58;18.98;;;;;;;;;;7359710;19;20539;-83
2022/04/01 09:32:08;;;;;;;27.90;18.15;;;;;;;;;;7363957;19;20027;-82
2022/04/01 09:34:37;;;;;;;25.85;17.08;;;;;;;;;;7377758;19;20028;-81
2022/04/01 09:37:02;;;;;;;26.02;16.77;;;;;;;;;;7369258;19;20034;-82
2022/04/01 09:39:28;;;;;;;24.13;15.80;;;;;;;;;;7374820;19;20715;-82
2022/04/01 09:41:55;;;;;;;25.02;16.05;;;;;;;;;;7367833;19;20017;-81
2022/04/01 09:44:21;;;;;;;24.20;15.50;;;;;;;;;;7374317;19;20513;-81
2022/04/01 09:46:52;;;;;;;23.73;15.60;;;;;;;;;;7356427;19;20509;-81
2022/04/01 09:49:38;;;;;;;21.67;15.25;;;;;;;;;;7380901;19;20003;-80
2022/04/01 09:52:13;;;;;;;26.00;15.23;;;;;;;;;;7359352;19;20030;-81
2022/04/01 09:54:49;;;;;;;22.75;14.52;;;;;;;;;;7378297;19;20513;-80
2022/04/01 09:57:15;;;;;;;23.73;15.85;;;;;;;;;;7375556;19;20323;-80
2022/04/01 09:59:41;;;;;;;24.50;15.50;;;;;;;;;;7357442;19;20025;-84
2022/04/01 10:02:07;;;;;;;24.95;15.75;;;;;;;;;;7377069;19;20103;-82
2022/04/01 10:04:32;;;;;;;22.30;15.00;;;;;;;;;;7378642;19;20026;-83
2022/04/01 10:06:58;;;;;;;24.02;15.48;;;;;;;;;;7372996;19;20017;-82
2022/04/01 10:09:25;;;;;;;20.17;13.80;;;;;;;;;;7376198;19;20424;-85
2022/04/01 10:11:51;;;;;;;21.08;13.73;;;;;;;;;;7373243;19;20076;-81
2022/04/01 10:14:18;;;;;;;22.48;13.93;;;;;;;;;;7386404;19;20472;-82
2022/04/01 10:16:44;;;;;;;22.35;14.45;;;;;;;;;;7359162;19;20032;-81
2022/04/01 10:19:12;;;;;;;20.02;13.27;;;;;;;;;;7379324;19;19999;-83
2022/04/01 10:21:40;;;;;;;23.17;15.55;;;;;;;;;;7387785;19;20037;-81
2022/04/01 10:24:25;;;;;;;20.40;14.43;;;;;;;;;;7379066;19;20019;-81
2022/04/01 10:27:14;;;;;;;21.20;14.50;;;;;;;;;;7376359;19;20878;-84
2022/04/01 10:29:39;;;;;;;19.92;13.43;;;;;;;;;;7378855;19;20078;-82
2022/04/01 10:32:19;;;;;;;20.63;14.25;;;;;;;;;;7382149;19;20689;-81
2022/04/01 10:34:45;;;;;;;21.05;14.13;;;;;;;;;;7379900;19;20668;-81
2022/04/01 10:37:13;;;;;;;21.33;14.80;;;;;;;;;;7380927;19;20052;-81
2022/04/01 10:39:50;;;;;;;20.73;13.02;;;;;;;;;;7367784;19;20027;-81
2022/04/01 10:42:16;;;;;;;19.90;13.57;;;;;;;;;;7381925;19;20011;-81
2022/04/01 10:44:55;;;;;;;21.98;14.20;;;;;;;;;;7371840;19;20018;-81
2022/04/01 10:51:36;;;;;;;21.85;14.20;;;;;;;;;;7375842;19;20010;-84
2022/04/01 10:53:08;;;;;;;;;;;;;;;;;;7377959;19;20017;-80
2022/04/01 10:55:34;;;;;;;21.20;11.90;;;;;;;;;;7385491;19;19919;-81
2022/04/01 10:58:06;;;;;;;21.83;13.98;;;;;;;;;;7377702;19;20006;-83
2022/04/01 11:00:33;;;;;;;20.92;13.40;;;;;;;;;;7353569;19;20011;-85
2022/04/01 11:03:18;;;;;;;19.17;13.13;;;;;;;;;;7379531;19;20025;-84
2022/04/01 11:05:43;;;;;;;19.73;13.93;;;;;;;;;;7381216;19;20019;-82
2022/04/01 11:08:19;;;;;;;20.90;13.32;;;;;;;;;;7384081;19;20481;-83
2022/04/01 11:11:06;;;;;;;20.40;13.18;;;;;;;;;;7375271;19;20033;-81
2022/04/01 11:13:32;;;;;;;22.08;13.20;;;;;;;;;;7384158;19;20372;-82
2022/04/01 11:16:12;;;;;;;20.40;12.93;;;;;;;;;;7354552;19;20010;-83
2022/04/01 11:18:57;;;;;;;20.65;13.88;;;;;;;;;;7382041;19;20014;-82
2022/04/01 11:21:31;;;;;;;19.15;13.05;;;;;;;;;;7377161;19;20387;-83
2022/04/01 11:24:03;;;;;;;19.42;13.63;;;;;;;;;;7371410;19;20449;-82
2022/04/01 11:26:41;;;;;;;24.60;13.50;;;;;;;;;;7380493;19;20010;-84
2022/04/01 11:29:16;;;;;;;20.83;12.73;;;;;;;;;;7374877;19;20010;-82
2022/04/01 11:31:42;;;;;;;21.63;14.27;;;;;;;;;;7366376;19;20059;-85
2022/04/01 11:34:07;;;;;;;22.48;13.85;;;;;;;;;;7338077;19;20021;-81
2022/04/01 11:36:32;;;;;;;20.23;13.48;;;;;;;;;;7362288;19;20013;-82
2022/04/01 11:38:59;;;;;;;19.48;13.15;;;;;;;;;;7375879;19;20017;-83
2022/04/01 11:41:24;;;;;;;21.52;13.73;;;;;;;;;;7370938;19;20330;-82
2022/04/01 11:43:50;;;;;;;20.05;12.65;;;;;;;;;;7372068;19;20006;-82
2022/04/01 11:46:15;;;;;;;19.98;12.93;;;;;;;;;;7354104;19;20022;-81
2022/04/01 11:48:41;;;;;;;17.73;11.45;;;;;;;;;;7380923;19;20010;-83
2022/04/01 11:51:08;;;;;;;20.20;12.98;;;;;;;;;;7368647;19;20085;-83
2022/04/01 11:53:35;;;;;;;19.42;12.68;;;;;;;;;;7383785;19;20102;-81
2022/04/01 11:56:01;;;;;;;18.98;12.82;;;;;;;;;;7370789;19;20038;-82
2022/04/01 11:58:27;;;;;;;19.75;13.18;;;;;;;;;;7382294;19;20395;-82
2022/04/01 12:00:52;;;;;;;20.23;13.48;;;;;;;;;;7356891;19;20010;-82
2022/04/01 12:03:21;;;;;;;23.33;14.13;;;;;;;;;;7373866;19;20002;-84
2022/04/01 12:08:41;;;;;;;23.02;14.60;;;;;;;;;;7380001;19;20031;-81
2022/04/01 12:08:43;;;;;;;19.00;12.77;;;;;;;;;;7374012;19;20014;-83
2022/04/01 12:11:09;;;;;;;20.10;12.60;;;;;;;;;;7374744;19;20010;-82
2022/04/01 12:13:40;;;;;;;22.17;12.75;;;;;;;;;;7373146;19;20010;-81
2022/04/01 12:16:05;;;;;;;21.08;13.52;;;;;;;;;;7364808;19;20102;-82
2022/04/01 12:18:31;;;;;;;21.40;13.63;;;;;;;;;;7379316;19;20342;-82
2022/04/01 12:20:57;;;;;;;27.17;13.32;;;;;;;;;;7376879;19;20006;-82
2022/04/01 12:23:25;;;;;;;22.80;13.57;;;;;;;;;;7374369;19;21008;-81
2022/04/01 12:25:52;;;;;;;21.58;13.63;;;;;;;;;;7369341;19;20033;-83
2022/04/01 12:28:21;;;;;;;23.35;13.73;;;;;;;;;;7371115;19;20006;-85
2022/04/01 12:30:47;;;;;;;19.27;12.07;;;;;;;;;;7363192;19;20019;-80
2022/04/01 12:33:20;;;;;;;19.67;12.70;;;;;;;;;;7385138;19;20003;-80
2022/04/01 12:35:54;;;;;;;19.80;12.73;;;;;;;;;;7376752;19;20022;-81
2022/04/01 12:38:19;;;;;;;20.17;12.55;;;;;;;;;;7381797;19;21800;-81
2022/04/01 12:40:44;;;;;;;19.55;11.95;;;;;;;;;;7375044;19;20014;-81
2022/04/01 12:43:29;;;;;;;23.23;14.02;;;;;;;;;;7373246;19;20014;-84
2022/04/01 12:45:54;;;;;;;;;;;;;;;;;;7363200;19;20047;-80
2022/04/01 12:48:20;;;;;;;19.55;11.80;;;;;;;;;;7382994;19;19964;-81
2022/04/01 12:50:47;;;;;;;20.40;12.63;;;;;;;;;;7382992;19;20025;-80
2022/04/01 12:53:14;;;;;;;17.52;11.68;;;;;;;;;;7387170;19;20011;-82
2022/04/01 12:55:40;;;;;;;21.90;12.52;;;;;;;;;;7372212;19;20007;-81
2022/04/01 12:58:12;;;;;;;22.27;12.27;;;;;;;;;;7376966;19;20615;-82
2022/04/01 13:00:37;;;;;;;20.35;11.52;;;;;;;;;;7367740;19;20024;-81
2022/04/01 13:03:02;;;;;;;20.35;12.55;;;;;;;;;;7380772;19;20058;-82
2022/04/01 13:05:27;;;;;;;20.52;12.20;;;;;;;;;;7374390;19;20002;-83
2022/04/01 13:07:53;;;;;;;18.52;11.18;;;;;;;;;;7369658;19;20010;-82
2022/04/01 13:10:20;;;;;;;22.38;12.45;;;;;;;;;;7388606;19;20014;-81
2022/04/01 13:12:46;;;;;;;18.70;11.25;;;;;;;;;;7382110;19;20014;-82
2022/04/01 13:15:12;;;;;;;19.58;11.40;;;;;;;;;;7376832;19;20006;-82
2022/04/01 13:17:40;;;;;;;17.00;10.93;;;;;;;;;;7384581;19;20017;-82
2022/04/01 13:20:06;;;;;;;17.90;10.48;;;;;;;;;;7382011;19;20015;-82
2022/04/01 13:22:31;;;;;;;20.63;11.20;;;;;;;;;;7374815;19;20493;-84
2022/04/01 13:24:56;;;;;;;17.35;11.32;;;;;;;;;;7379154;19;20007;-82
2022/04/01 13:27:22;;;;;;;16.80;11.20;;;;;;;;;;7375615;19;20485;-80
2022/04/01 13:29:47;;;;;;;20.35;12.10;;;;;;;;;;7370858;19;20015;-81
2022/04/01 13:32:13;;;;;;;19.83;12.05;;;;;;;;;;7370105;19;20082;-83
2022/04/01 13:34:39;;;;;;;21.67;12.30;;;;;;;;;;7382871;19;20022;-82
2022/04/01 13:37:06;;;;;;;20.58;11.82;;;;;;;;;;7378724;19;20021;-83
2022/04/01 13:39:32;;;;;;;19.85;11.55;;;;;;;;;;7374870;19;20506;-84
2022/04/01 13:41:58;;;;;;;19.50;11.70;;;;;;;;;;7386772;19;20007;-81
2022/04/01 13:44:23;;;;;;;17.08;11.38;;;;;;;;;;7366977;19;20010;-84
2022/04/01 13:46:49;;;;;;;19.23;12.07;;;;;;;;;;7358600;19;20026;-82
2022/04/01 13:49:14;;;;;;;19.30;12.02;;;;;;;;;;7380884;19;20030;-81
2022/04/01 13:51:40;;;;;;;17.05;11.23;;;;;;;;;;7369585;19;20011;-81
2022/04/01 13:54:06;;;;;;;16.50;10.10;;;;;;;;;;7383609;19;20095;-81
2022/04/01 13:56:31;;;;;;;19.00;12.18;;;;;;;;;;7373236;19;20015;-84
2022/04/01 13:58:56;;;;;;;20.40;11.50;;;;;;;;;;7381088;19;20081;-80
2022/04/01 14:01:22;;;;;;;17.10;10.98;;;;;;;;;;7369710;19;20364;-81
2022/04/01 14:03:47;;;;;;;18.08;11.57;;;;;;;;;;7370217;19;20415;-80
2022/04/01 14:06:13;;;;;;;17.15;11.02;;;;;;;;;;7373950;19;20014;-81
2022/04/01 14:08:39;;;;;;;15.77;10.55;;;;;;;;;;7353892;19;20806;-81
2022/04/01 14:11:04;;;;;;;16.77;10.93;;;;;;;;;;7375249;19;21605;-81
2022/04/01 14:13:30;;;;;;;19.40;11.98;;;;;;;;;;7372152;19;20351;-81
2022/04/01 14:15:56;;;;;;;17.42;11.05;;;;;;;;;;7357038;19;20152;-84
2022/04/01 14:18:21;;;;;;;20.42;10.95;;;;;;;;;;7379690;19;20010;-81
2022/04/01 14:20:46;;;;;;;17.33;10.50;;;;;;;;;;7368829;19;20010;-81
2022/04/01 14:23:13;;;;;;;16.35;9.85;;;;;;;;;;7363118;19;20010;-82
2022/04/01 14:25:40;;;;;;;17.55;10.88;;;;;;;;;;7370465;19;20064;-84
2022/04/01 14:28:05;;;;;;;16.17;10.45;;;;;;;;;;7372309;19;20036;-82
2022/04/01 14:30:31;;;;;;;15.45;10.77;;;;;;;;;;7366886;19;20149;-83